Time;durP1;ratioP1;P1;durP2;ratioP2;P2;SDS_P1;SDS_P2;PMS_P1;PMS_P2;Temp;Humidity;BMP_temperature;BMP_pressure;BME280_temperature;BME280_humidity;BME280_pressure;Samples;Min_cycle;Max_cycle;Signal;HPM_P1;HPM_P2
2021/05/04 00:01:37;;;;;;;2.13;1.58;;;;;;;12.35;65.67;100709.94;5094851;28;20035;-72
2021/05/04 00:04:03;;;;;;;2.80;2.08;;;;;;;12.30;65.94;100723.03;5094218;28;20427;-72
2021/05/04 00:06:28;;;;;;;3.58;2.30;;;;;;;12.18;65.79;100708.34;5094146;28;20020;-72
2021/05/04 00:08:54;;;;;;;2.20;1.83;;;;;;;12.10;66.13;100704.59;5094092;28;20032;-72
2021/05/04 00:11:19;;;;;;;2.08;1.83;;;;;;;12.05;66.24;100688.94;5094065;28;20066;-72
2021/05/04 00:13:45;;;;;;;4.05;2.20;;;;;;;12.09;66.62;100690.97;5094006;28;20028;-72
2021/05/04 00:16:10;;;;;;;5.15;2.58;;;;;;;12.02;66.65;100684.06;5093977;28;20032;-72
2021/05/04 00:18:36;;;;;;;2.47;2.28;;;;;;;12.00;67.10;100672.47;5094200;28;20027;-72
2021/05/04 00:21:02;;;;;;;4.68;2.22;;;;;;;11.91;66.46;100663.47;5094426;28;20107;-72
2021/05/04 00:23:28;;;;;;;3.70;2.35;;;;;;;11.95;67.03;100671.94;5093832;28;20466;-72
2021/05/04 00:25:53;;;;;;;5.20;2.20;;;;;;;11.94;66.48;100673.91;5093044;28;20177;-72
2021/05/04 00:28:18;;;;;;;1.90;1.80;;;;;;;12.09;66.11;100677.03;5093804;28;20020;-72
2021/05/04 00:30:44;;;;;;;3.03;1.90;;;;;;;11.99;65.93;100678.41;5093714;28;20043;-72
2021/05/04 00:33:09;;;;;;;4.03;1.90;;;;;;;11.96;66.35;100670.75;5093652;28;20024;-72
2021/05/04 00:35:35;;;;;;;2.60;1.80;;;;;;;11.83;67.14;100672.84;5093615;28;20032;-72
2021/05/04 00:38:01;;;;;;;3.10;2.30;;;;;;;11.77;66.58;100666.69;5093559;28;20035;-72
2021/05/04 00:40:26;;;;;;;2.00;1.90;;;;;;;11.82;66.18;100665.63;5093807;28;20120;-72
2021/05/04 00:42:52;;;;;;;2.53;1.95;;;;;;;11.91;66.65;100669.03;5093790;28;20046;-72
2021/05/04 00:45:17;;;;;;;3.20;2.03;;;;;;;11.88;66.55;100660.56;5093444;28;20393;-72
2021/05/04 00:47:43;;;;;;;2.42;2.10;;;;;;;11.87;66.71;100653.38;5094440;28;20058;-72
2021/05/04 00:50:09;;;;;;;3.28;2.17;;;;;;;11.86;66.95;100652.59;5096742;28;20028;-72
2021/05/04 00:52:35;;;;;;;3.53;1.98;;;;;;;11.84;67.13;100640.19;5095547;28;20024;-72
2021/05/04 00:55:05;;;;;;;5.15;2.20;;;;;;;11.88;67.06;100639.13;5094096;28;20036;-72
2021/05/04 00:57:34;;;;;;;3.20;2.00;;;;;;;11.90;66.99;100633.16;5093265;28;20031;-72
2021/05/04 01:00:03;;;;;;;4.45;2.35;;;;;;;11.98;65.95;100632.97;5093720;28;20462;-72
2021/05/04 01:02:32;;;;;;;2.20;2.00;;;;;;;11.85;67.09;100623.09;5093171;28;20020;-72
2021/05/04 01:04:58;;;;;;;2.95;2.03;;;;;;;11.82;67.17;100629.38;5076472;28;20043;-72
2021/05/04 01:07:23;;;;;;;3.17;1.92;;;;;;;11.76;66.85;100622.44;5092591;28;20025;-72
2021/05/04 01:09:49;;;;;;;2.10;1.90;;;;;;;11.68;67.54;100631.78;5093269;28;20454;-72
2021/05/04 01:12:14;;;;;;;2.08;1.88;;;;;;;11.65;67.76;100629.72;5092955;28;20028;-72
2021/05/04 01:14:40;;;;;;;2.58;1.80;;;;;;;11.60;67.79;100625.22;5093509;28;20089;-72
2021/05/04 01:17:06;;;;;;;1.50;1.40;;;;;;;11.50;68.01;100607.06;5093215;28;20036;-72
2021/05/04 01:19:32;;;;;;;3.15;1.65;;;;;;;11.52;68.08;100615.06;5093423;28;20062;-72
2021/05/04 01:21:57;;;;;;;2.70;1.98;;;;;;;11.49;67.45;100604.63;5093109;28;20463;-72
2021/05/04 01:24:23;;;;;;;3.22;1.65;;;;;;;11.47;67.44;100605.00;5092629;28;20043;-72
2021/05/04 01:26:48;;;;;;;3.40;1.77;;;;;;;11.40;66.95;100604.81;5092712;28;20024;-72
2021/05/04 01:29:15;;;;;;;2.78;1.73;;;;;;;11.39;67.00;100614.31;5092494;28;20047;-72
2021/05/04 01:31:42;;;;;;;2.53;1.92;;;;;;;11.43;67.59;100601.28;5092748;28;20123;-72
2021/05/04 01:34:08;;;;;;;3.17;2.08;;;;;;;11.52;67.18;100601.13;5093260;28;20031;-72
2021/05/04 01:36:34;;;;;;;1.73;1.63;;;;;;;11.47;67.25;100590.25;5093243;28;20027;-72
2021/05/04 01:39:03;;;;;;;3.30;1.70;;;;;;;11.65;66.91;100585.13;5092661;28;20100;-72
2021/05/04 01:41:29;;;;;;;2.97;2.03;;;;;;;11.60;67.04;100577.03;5092618;28;20478;-72
2021/05/04 01:43:57;;;;;;;2.13;1.80;;;;;;;11.57;66.77;100583.34;5092885;28;20063;-72
2021/05/04 01:46:23;;;;;;;1.58;1.48;;;;;;;11.62;67.11;100580.28;5093439;28;20074;-72
2021/05/04 01:48:52;;;;;;;2.17;1.98;;;;;;;11.69;67.00;100592.41;5092536;28;20036;-72
2021/05/04 01:51:18;;;;;;;1.75;1.48;;;;;;;11.74;66.61;100577.38;5092534;28;20051;-72
2021/05/04 01:53:43;;;;;;;1.95;1.85;;;;;;;11.67;67.06;100578.03;5092749;28;20135;-72
2021/05/04 01:56:09;;;;;;;1.92;1.83;;;;;;;11.57;67.72;100577.75;5092482;28;20064;-72
2021/05/04 01:58:34;;;;;;;2.33;1.73;;;;;;;11.51;67.52;100569.66;5092652;28;20031;-72
2021/05/04 02:01:00;;;;;;;2.03;1.70;;;;;;;11.43;67.90;100578.19;5092490;28;20035;-72
2021/05/04 02:03:25;;;;;;;2.47;2.03;;;;;;;11.38;68.52;100564.53;5092104;28;20058;-72
2021/05/04 02:05:51;;;;;;;2.50;2.08;;;;;;;11.41;68.58;100561.84;5092582;28;20028;-72
2021/05/04 02:08:16;;;;;;;2.22;2.00;;;;;;;11.46;68.29;100571.91;5092379;28;20477;-72
2021/05/04 02:10:42;;;;;;;3.08;2.00;;;;;;;11.39;68.46;100558.59;5092345;28;20031;-72
2021/05/04 02:13:08;;;;;;;2.25;1.95;;;;;;;11.44;67.76;100561.13;5092556;28;20039;-72
2021/05/04 02:15:33;;;;;;;7.50;2.30;;;;;;;11.36;68.20;100539.84;5092589;28;20024;-72
2021/05/04 02:17:59;;;;;;;2.13;1.88;;;;;;;11.42;67.59;100543.97;5092567;28;20036;-72
2021/05/04 02:20:25;;;;;;;1.95;1.65;;;;;;;11.39;68.16;100541.88;5095823;28;20443;-72
2021/05/04 02:22:50;;;;;;;3.78;1.92;;;;;;;11.43;67.97;100545.56;5096818;28;20028;-72
2021/05/04 02:25:16;;;;;;;3.90;1.63;;;;;;;11.41;68.29;100536.78;5096110;28;20048;-72
2021/05/04 02:27:42;;;;;;;1.65;1.55;;;;;;;11.48;67.19;100538.94;5097423;28;20127;-72
2021/05/04 02:30:08;;;;;;;2.65;1.60;;;;;;;11.27;67.55;100537.22;5096572;28;20044;-72
2021/05/04 02:32:36;;;;;;;3.03;2.10;;;;;;;11.19;68.36;100532.66;5096355;28;20111;-72
2021/05/04 02:35:06;;;;;;;2.35;1.70;;;;;;;11.37;67.63;100538.66;5098043;28;20032;-72
2021/05/04 02:37:32;;;;;;;1.73;1.60;;;;;;;11.31;67.40;100537.31;5096938;28;20040;-72
2021/05/04 02:39:58;;;;;;;2.00;1.65;;;;;;;11.17;66.72;100531.38;5096161;28;20032;-72
2021/05/04 02:42:24;;;;;;;6.18;2.05;;;;;;;11.16;67.75;100535.31;5096240;28;20385;-72
2021/05/04 02:44:49;;;;;;;1.60;1.50;;;;;;;11.09;68.34;100530.38;5096116;28;20467;-72
2021/05/04 02:47:15;;;;;;;2.78;1.55;;;;;;;11.05;68.75;100525.88;5096123;28;20027;-72
2021/05/04 02:49:40;;;;;;;2.13;2.00;;;;;;;10.76;69.85;100536.25;5095809;28;20106;-72
2021/05/04 02:52:06;;;;;;;3.38;1.60;;;;;;;10.76;69.62;100533.47;5095695;28;20020;-72
2021/05/04 02:54:32;;;;;;;1.58;1.48;;;;;;;10.73;69.76;100536.97;5095597;28;20034;-72
2021/05/04 02:56:57;;;;;;;1.80;1.70;;;;;;;10.77;69.87;100532.31;5095570;28;20115;-72
2021/05/04 02:59:23;;;;;;;2.58;1.70;;;;;;;10.87;69.54;100545.72;5095518;28;20056;-72
2021/05/04 03:01:48;;;;;;;3.08;2.30;;;;;;;10.91;69.94;100545.78;5095487;28;20088;-72
2021/05/04 03:04:14;;;;;;;2.42;2.33;;;;;;;10.95;69.51;100552.28;5095407;28;20036;-72
2021/05/04 03:06:42;;;;;;;2.47;2.28;;;;;;;10.88;69.76;100552.91;5095319;28;20028;-72
2021/05/04 03:09:08;;;;;;;4.32;1.90;;;;;;;10.79;69.01;100546.66;5095395;28;20040;-72
2021/05/04 03:11:33;;;;;;;3.40;1.70;;;;;;;10.79;69.04;100546.66;5096064;28;20077;-72
2021/05/04 03:13:59;;;;;;;1.20;1.20;;;;;;;10.81;68.89;100549.91;5096323;28;20067;-72
2021/05/04 03:16:24;;;;;;;3.25;1.70;;;;;;;10.88;68.63;100540.94;5095320;28;20016;-72
2021/05/04 03:18:50;;;;;;;2.08;1.30;;;;;;;10.92;68.27;100539.88;5095485;28;20032;-72
2021/05/04 03:21:15;;;;;;;2.63;1.17;;;;;;;11.02;67.51;100541.31;5095378;28;20477;-72
2021/05/04 03:23:41;;;;;;;2.30;1.05;;;;;;;10.97;68.03;100542.41;5095187;28;20044;-72
2021/05/04 03:26:06;;;;;;;1.63;1.52;;;;;;;10.88;68.42;100540.94;5094422;28;20406;-72
2021/05/04 03:28:32;;;;;;;1.95;1.50;;;;;;;10.96;67.54;100542.75;5095251;28;20024;-72
2021/05/04 03:30:58;;;;;;;3.88;1.42;;;;;;;10.98;67.35;100538.47;5094751;28;20040;-72
2021/05/04 03:33:26;;;;;;;3.80;1.58;;;;;;;11.07;67.73;100541.06;5095138;28;20027;-72
2021/05/04 03:35:52;;;;;;;2.25;1.58;;;;;;;11.08;67.14;100533.50;5095337;28;20470;-72
2021/05/04 03:38:17;;;;;;;7.20;5.40;;;;;;;11.14;67.49;100538.47;5094753;28;20031;-72
2021/05/04 03:40:45;;;;;;;4.55;4.15;;;;;;;11.12;67.99;100545.56;5094676;28;20039;-72
2021/05/04 03:43:12;;;;;;;3.30;3.10;;;;;;;11.12;68.18;100548.34;5094696;28;20024;-72
2021/05/04 03:45:38;;;;;;;8.57;3.17;;;;;;;11.14;67.56;100549.63;5096059;28;20028;-72
2021/05/04 03:48:04;;;;;;;4.43;2.90;;;;;;;11.06;68.09;100555.34;5094545;28;20028;-72
2021/05/04 03:50:30;;;;;;;2.42;2.22;;;;;;;11.09;67.64;100551.84;5095053;28;20055;-72
2021/05/04 03:52:57;;;;;;;3.50;2.63;;;;;;;10.96;67.49;100540.78;5094601;28;20467;-72
2021/05/04 03:55:22;;;;;;;7.00;4.20;;;;;;;10.90;67.46;100536.63;5094429;28;20027;-72
2021/05/04 03:57:48;;;;;;;8.32;4.45;;;;;;;10.90;67.24;100544.19;5094375;28;20031;-72
2021/05/04 04:00:15;;;;;;;7.38;6.68;;;;;;;11.05;66.00;100539.81;5094846;28;20043;-72
2021/05/04 04:02:40;;;;;;;8.10;6.85;;;;;;;11.02;65.62;100542.16;5094523;28;20525;-72
2021/05/04 04:05:07;;;;;;;10.80;9.80;;;;;;;10.92;66.39;100525.97;5094560;28;20039;-72
2021/05/04 04:07:36;;;;;;;17.85;15.40;;;;;;;11.00;66.20;100527.75;5077610;28;20039;-71
2021/05/04 04:10:02;;;;;;;13.00;11.63;;;;;;;10.97;66.20;100527.66;5094083;28;20028;-72
2021/05/04 04:12:28;;;;;;;13.77;9.93;;;;;;;10.91;65.82;100518.75;5094336;28;20367;-71
2021/05/04 04:14:54;;;;;;;5.80;5.07;;;;;;;11.04;65.44;100522.28;5094348;28;20028;-71
2021/05/04 04:17:20;;;;;;;4.70;2.53;;;;;;;11.08;65.16;100523.22;5093936;28;20035;-71
2021/05/04 04:19:46;;;;;;;2.30;1.85;;;;;;;11.13;65.33;100538.81;5094004;28;20028;-72
2021/05/04 04:22:12;;;;;;;6.25;1.45;;;;;;;11.24;65.04;100534.34;5094681;28;20042;-71
2021/05/04 04:24:38;;;;;;;3.40;1.85;;;;;;;11.30;65.24;100530.13;5093481;28;20097;-71
2021/05/04 04:27:03;;;;;;;4.30;1.58;;;;;;;11.65;64.19;100540.53;5093733;28;20081;-71
2021/05/04 04:29:30;;;;;;;1.70;1.60;;;;;;;12.03;63.26;100534.28;5093771;28;20046;-71
2021/05/04 04:31:55;;;;;;;1.50;1.40;;;;;;;12.73;60.87;100524.97;5093665;28;20031;-72
2021/05/04 04:34:21;;;;;;;3.97;1.42;;;;;;;13.48;57.78;100529.97;5093634;28;20036;-72
2021/05/04 04:36:46;;;;;;;1.73;1.17;;;;;;;13.96;56.82;100535.91;5093626;28;20047;-72
2021/05/04 04:39:12;;;;;;;2.00;1.30;;;;;;;14.38;55.51;100524.50;5093308;28;20028;-72
2021/05/04 04:41:40;;;;;;;2.38;1.13;;;;;;;14.56;54.79;100521.94;5093462;28;20035;-72
2021/05/04 04:44:06;;;;;;;2.15;1.42;;;;;;;14.38;55.61;100521.69;5093452;28;20115;-72
2021/05/04 04:46:41;;;;;;;3.03;1.13;;;;;;;14.44;55.63;100518.56;5093964;28;20423;-72
2021/05/04 04:49:15;;;;;;;1.30;1.20;;;;;;;14.74;55.14;100524.94;5093989;28;20035;-71
2021/05/04 04:51:41;;;;;;;1.95;1.17;;;;;;;14.96;54.32;100523.16;5093642;28;20429;-72
2021/05/04 04:54:07;;;;;;;1.38;1.27;;;;;;;15.36;53.34;100529.97;5093571;28;20552;-72
2021/05/04 04:56:34;;;;;;;2.17;1.40;;;;;;;15.45;53.49;100533.28;5093679;28;20032;-72
2021/05/04 04:58:59;;;;;;;2.20;1.30;;;;;;;15.94;52.60;100532.88;5093199;28;20024;-72
2021/05/04 05:01:25;;;;;;;3.58;1.35;;;;;;;16.93;50.17;100530.91;5092882;28;20036;-72
2021/05/04 05:03:51;;;;;;;1.33;1.23;;;;;;;17.86;48.27;100540.25;5093382;28;20122;-72
2021/05/04 05:06:16;;;;;;;2.22;1.42;;;;;;;18.79;45.95;100554.88;5093226;28;20020;-72
2021/05/04 05:08:42;;;;;;;2.58;2.05;;;;;;;19.51;44.35;100560.91;5092978;28;20032;-72
2021/05/04 05:11:07;;;;;;;4.82;2.50;;;;;;;19.86;43.83;100557.00;5092880;28;20158;-72
2021/05/04 05:13:33;;;;;;;4.57;2.28;;;;;;;19.80;43.06;100555.84;5092749;28;20039;-72
2021/05/04 05:15:58;;;;;;;2.20;1.77;;;;;;;19.53;43.99;100568.94;5092865;28;20032;-72
2021/05/04 05:18:24;;;;;;;3.72;1.80;;;;;;;19.06;45.85;100568.44;5093292;28;20113;-72
2021/05/04 05:20:50;;;;;;;1.85;1.73;;;;;;;18.93;44.81;100573.75;5093076;28;20024;-72
2021/05/04 05:23:17;;;;;;;6.82;2.00;;;;;;;18.86;45.51;100587.09;5092949;28;20040;-72
2021/05/04 05:25:43;;;;;;;2.47;1.83;;;;;;;18.93;45.75;100584.25;5092135;28;20071;-72
2021/05/04 05:28:09;;;;;;;5.45;2.30;;;;;;;18.44;47.05;100580.38;5092610;28;20474;-72
2021/05/04 05:30:34;;;;;;;3.38;1.77;;;;;;;18.56;47.03;100588.38;5092787;28;20036;-72
2021/05/04 05:33:00;;;;;;;1.75;1.48;;;;;;;19.04;46.06;100590.63;5092606;28;20471;-72
2021/05/04 05:35:25;;;;;;;2.15;1.50;;;;;;;19.72;44.82;100584.56;5092758;28;20032;-73
2021/05/04 05:37:51;;;;;;;4.03;1.67;;;;;;;20.24;43.39;100599.44;5092960;28;20031;-72
2021/05/04 05:40:17;;;;;;;2.78;1.98;;;;;;;19.49;44.34;100593.56;5092490;28;20028;-72
2021/05/04 05:42:42;;;;;;;2.22;1.83;;;;;;;19.55;44.98;100577.81;5092413;28;20085;-72
2021/05/04 05:45:09;;;;;;;1.92;1.58;;;;;;;20.20;43.95;100584.53;5092398;28;20119;-72
2021/05/04 05:47:37;;;;;;;6.45;2.80;;;;;;;20.37;42.61;100589.19;5093899;28;20027;-72
2021/05/04 05:50:05;;;;;;;5.82;1.98;;;;;;;20.31;43.32;100588.03;5092097;28;20036;-72
2021/05/04 05:52:30;;;;;;;1.92;1.65;;;;;;;20.36;43.03;100596.06;5092749;28;20466;-72
2021/05/04 05:54:56;;;;;;;2.83;1.92;;;;;;;19.52;44.81;100589.91;5095508;28;20173;-72
2021/05/04 05:57:21;;;;;;;2.35;1.92;;;;;;;19.02;46.30;100585.41;5096672;28;20024;-72
2021/05/04 05:59:47;;;;;;;2.13;1.60;;;;;;;18.93;46.60;100582.22;5097216;28;20039;-72
2021/05/04 06:02:13;;;;;;;2.42;1.85;;;;;;;19.08;45.65;100599.88;5097134;28;20024;-72
2021/05/04 06:04:38;;;;;;;3.45;2.15;;;;;;;18.26;49.91;100608.56;5096576;28;20042;-72
2021/05/04 06:07:04;;;;;;;2.22;1.98;;;;;;;19.04;46.75;100622.44;5096408;28;20475;-72
2021/05/04 06:09:29;;;;;;;3.33;2.03;;;;;;;18.41;48.01;100618.59;5096772;28;20079;-72
2021/05/04 06:11:55;;;;;;;5.28;2.30;;;;;;;17.68;48.12;100588.06;5096751;28;20032;-72
2021/05/04 06:14:21;;;;;;;2.20;2.00;;;;;;;18.28;47.04;100620.25;5096390;28;20462;-72
2021/05/04 06:16:47;;;;;;;1.95;1.73;;;;;;;19.10;45.88;100611.53;5096998;28;20020;-72
2021/05/04 06:19:12;;;;;;;2.90;2.22;;;;;;;19.79;44.42;100605.06;5096050;28;20089;-72
2021/05/04 06:21:38;;;;;;;8.80;2.30;;;;;;;20.06;43.71;100598.78;5095738;28;20035;-72
2021/05/04 06:24:05;;;;;;;5.00;3.13;;;;;;;20.40;42.24;100598.84;5095570;28;20048;-72
2021/05/04 06:26:30;;;;;;;6.32;1.80;;;;;;;19.75;43.67;100609.13;5095752;28;20475;-72
2021/05/04 06:28:56;;;;;;;3.38;1.65;;;;;;;19.33;44.79;100605.34;5096015;28;20039;-72
2021/05/04 06:31:22;;;;;;;4.47;2.10;;;;;;;18.99;45.65;100579.78;5095460;28;20028;-72
2021/05/04 06:33:47;;;;;;;4.95;2.20;;;;;;;19.44;45.17;100606.13;5095520;28;20036;-71
2021/05/04 06:36:13;;;;;;;2.80;1.50;;;;;;;18.86;46.15;100615.28;5096001;28;20028;-71
2021/05/04 06:38:39;;;;;;;3.50;2.10;;;;;;;18.60;46.41;100614.53;5095411;28;20367;-71
2021/05/04 06:41:05;;;;;;;4.95;2.42;;;;;;;17.72;49.16;100614.22;5095255;28;20020;-71
2021/05/04 06:43:31;;;;;;;4.57;3.40;;;;;;;19.33;45.84;100608.19;5095210;28;20032;-72
2021/05/04 06:45:57;;;;;;;7.53;3.97;;;;;;;19.44;45.88;100611.75;5078652;28;20493;-72
2021/05/04 06:48:26;;;;;;;6.93;3.83;;;;;;;19.40;45.93;100610.16;5095241;28;20043;-72
2021/05/04 06:50:52;;;;;;;8.75;4.05;;;;;;;20.25;43.62;100626.44;5094773;28;20119;-72
2021/05/04 06:53:18;;;;;;;7.15;3.38;;;;;;;20.01;44.14;100622.63;5095033;28;20066;-72
2021/05/04 06:55:46;;;;;;;4.50;3.47;;;;;;;20.87;42.14;100622.56;5095491;28;20412;-72
2021/05/04 06:58:12;;;;;;;2.95;2.50;;;;;;;21.33;40.89;100626.03;5095128;28;20536;-72
2021/05/04 07:00:37;;;;;;;4.32;2.40;;;;;;;22.14;39.05;100626.00;5095008;28;20025;-72
2021/05/04 07:03:03;;;;;;;4.40;2.20;;;;;;;22.03;38.94;100628.19;5095040;28;20028;-72
2021/05/04 07:05:29;;;;;;;4.30;2.92;;;;;;;21.98;39.15;100621.75;5094452;28;20024;-72
2021/05/04 07:07:55;;;;;;;5.40;2.60;;;;;;;22.03;39.04;100619.69;5094871;28;20035;-72
2021/05/04 07:10:20;;;;;;;4.10;2.40;;;;;;;22.40;38.28;100618.63;5094859;28;20028;-72
2021/05/04 07:12:49;;;;;;;3.55;1.98;;;;;;;22.29;38.19;100618.84;5094834;28;20039;-72
2021/05/04 07:15:14;;;;;;;6.43;2.28;;;;;;;22.19;37.76;100628.34;5096045;28;20024;-72
2021/05/04 07:17:41;;;;;;;2.70;2.22;;;;;;;22.07;38.90;100637.44;5094682;28;20596;-72
2021/05/04 07:20:07;;;;;;;3.03;1.98;;;;;;;21.38;39.59;100625.56;5095028;28;20032;-72
2021/05/04 07:22:34;;;;;;;6.43;2.40;;;;;;;21.00;40.49;100633.31;5094359;28;20077;-72
2021/05/04 07:25:00;;;;;;;3.70;2.38;;;;;;;20.94;40.91;100621.69;5094074;28;20060;-72
2021/05/04 07:27:26;;;;;;;3.10;2.80;;;;;;;20.63;41.30;100618.00;5094178;28;20030;-72
2021/05/04 07:29:51;;;;;;;3.47;2.70;;;;;;;20.54;41.95;100624.16;5094782;28;20115;-72
2021/05/04 07:32:18;;;;;;;4.40;3.03;;;;;;;20.39;41.80;100626.28;5095131;28;20082;-72
2021/05/04 07:34:45;;;;;;;4.47;2.40;;;;;;;20.62;41.95;100617.22;5094644;28;20111;-72
2021/05/04 07:37:12;;;;;;;4.82;2.50;;;;;;;20.28;43.02;100624.81;5094775;28;20141;-71
2021/05/04 07:39:38;;;;;;;2.58;2.35;;;;;;;20.19;42.98;100622.47;5094454;28;20035;-72
2021/05/04 07:42:04;;;;;;;3.40;2.65;;;;;;;20.40;42.65;100627.91;5094984;28;20028;-71
2021/05/04 07:44:30;;;;;;;2.85;2.35;;;;;;;20.12;42.66;100614.06;5094360;28;20035;-72
2021/05/04 07:46:56;;;;;;;2.40;2.10;;;;;;;20.46;42.41;100625.47;5094478;28;20078;-72
2021/05/04 07:49:30;;;;;;;2.17;1.50;;;;;;;21.09;39.84;100631.59;5094215;28;20063;-72
2021/05/04 07:51:55;;;;;;;2.05;1.20;;;;;;;21.08;40.18;100615.03;5094027;28;20059;-72
2021/05/04 07:54:21;;;;;;;3.40;1.30;;;;;;;21.34;39.56;100617.09;5094099;28;20063;-72
2021/05/04 07:56:47;;;;;;;3.42;1.50;;;;;;;22.43;37.95;100618.59;5094098;28;20024;-72
2021/05/04 07:59:13;;;;;;;4.97;2.75;;;;;;;22.83;37.03;100620.63;5093999;28;20032;-72
2021/05/04 08:01:38;;;;;;;3.25;2.45;;;;;;;22.52;37.01;100617.19;5094008;28;20035;-72
2021/05/04 08:04:04;;;;;;;2.13;1.70;;;;;;;23.67;35.27;100625.72;5093913;28;20032;-72
2021/05/04 08:06:29;;;;;;;2.67;1.55;;;;;;;23.25;34.95;100621.78;5093721;28;20020;-72
2021/05/04 08:08:55;;;;;;;4.95;1.20;;;;;;;23.21;34.38;100626.75;5094483;28;20028;-71
2021/05/04 08:11:23;;;;;;;1.02;0.98;;;;;;;22.90;34.46;100635.50;5093796;28;20512;-72
2021/05/04 08:13:49;;;;;;;2.80;1.20;;;;;;;22.56;35.13;100629.28;5093858;28;20024;-72
2021/05/04 08:16:16;;;;;;;2.20;1.17;;;;;;;21.81;37.42;100620.03;5093494;28;20074;-72
2021/05/04 08:18:46;;;;;;;2.35;1.17;;;;;;;21.76;37.30;100631.06;5094274;28;20035;-72
2021/05/04 08:21:11;;;;;;;3.35;1.15;;;;;;;21.77;37.23;100615.66;5093680;28;20119;-72
2021/05/04 08:23:37;;;;;;;2.13;1.52;;;;;;;21.42;37.58;100607.31;5094288;28;20067;-72
2021/05/04 08:26:03;;;;;;;3.35;1.20;;;;;;;22.27;35.76;100609.97;5093157;28;20052;-72
2021/05/04 08:28:28;;;;;;;1.60;1.30;;;;;;;22.18;36.58;100615.41;5094091;28;20024;-72
2021/05/04 08:30:54;;;;;;;2.28;1.27;;;;;;;22.21;36.21;100617.34;5094272;28;20410;-71
2021/05/04 08:33:20;;;;;;;1.17;1.17;;;;;;;22.50;35.83;100623.31;5093619;28;20035;-71
2021/05/04 08:35:46;;;;;;;1.90;1.30;;;;;;;22.56;36.00;100621.56;5093157;28;20040;-72
2021/05/04 08:38:12;;;;;;;2.20;1.58;;;;;;;22.82;35.65;100625.50;5093251;28;20036;-71
2021/05/04 08:40:38;;;;;;;3.03;1.67;;;;;;;23.83;34.74;100615.59;5094714;28;20024;-72
2021/05/04 08:43:03;;;;;;;2.15;1.23;;;;;;;23.78;33.69;100611.25;5093161;28;20482;-71
2021/05/04 08:45:33;;;;;;;2.13;1.15;;;;;;;24.50;32.14;100618.75;5093135;28;20070;-72
2021/05/04 08:47:59;;;;;;;1.35;1.00;;;;;;;24.40;30.96;100620.66;5094340;28;20432;-72
2021/05/04 08:50:25;;;;;;;6.13;1.30;;;;;;;24.23;32.29;100607.66;5076122;28;20028;-72
2021/05/04 08:52:54;;;;;;;1.52;1.10;;;;;;;25.67;30.47;100619.34;5093000;28;20031;-72
2021/05/04 08:55:20;;;;;;;2.22;1.27;;;;;;;25.12;31.10;100613.72;5092691;28;20028;-73
2021/05/04 08:57:45;;;;;;;1.17;1.05;;;;;;;25.35;30.63;100609.75;5092725;28;20493;-73
2021/05/04 09:00:13;;;;;;;1.35;1.00;;;;;;;25.08;30.34;100608.13;5093113;28;20048;-73
2021/05/04 09:03:00;;;;;;;1.13;1.02;;;;;;;25.16;30.21;100599.41;5092809;28;20034;-73
2021/05/04 09:06:10;;;;;;;4.60;1.27;;;;;;;25.30;30.64;100590.41;5092793;28;20105;-72
2021/05/04 09:16:34;;;;;;;1.52;1.42;;;;;;;26.59;28.21;100599.13;5093965;28;20040;-71
2021/05/04 09:19:36;;;;;;;3.20;1.20;;;;;;;27.22;27.40;100593.50;5094464;28;20016;-72
2021/05/04 09:22:02;;;;;;;2.88;1.05;;;;;;;27.22;27.93;100600.03;5092617;28;20028;-72
2021/05/04 09:24:28;;;;;;;1.52;1.10;;;;;;;26.60;27.27;100592.13;5092561;28;20052;-72
2021/05/04 09:27:09;;;;;;;1.95;1.27;;;;;;;26.18;29.85;100587.94;5092494;28;20028;-72
2021/05/04 09:29:51;;;;;;;1.98;1.40;;;;;;;25.01;31.22;100594.09;5093713;28;20035;-71
2021/05/04 09:32:23;;;;;;;5.72;1.65;;;;;;;25.52;31.94;100585.63;5093804;28;20063;-71
2021/05/04 09:34:53;;;;;;;3.22;1.30;;;;;;;26.08;31.33;100584.19;5092814;28;20019;-71
2021/05/04 09:37:37;;;;;;;2.38;1.50;;;;;;;25.89;32.41;100588.94;5092296;28;20028;-71
2021/05/04 09:40:28;;;;;;;1.42;1.20;;;;;;;26.55;30.78;100591.94;5094025;28;20463;-71
2021/05/04 09:43:05;;;;;;;1.67;1.30;;;;;;;26.70;29.66;100592.22;5092201;28;20035;-71
2021/05/04 09:45:32;;;;;;;3.03;1.23;;;;;;;27.04;29.02;100583.53;5092555;28;20036;-71
2021/05/04 09:48:15;;;;;;;4.13;1.30;;;;;;;25.96;29.52;100591.53;5091408;28;20024;-70
2021/05/04 09:50:44;;;;;;;;;;;;;;;27.18;28.04;100590.00;5092062;28;20032;-71
2021/05/04 09:53:09;;;;;;;2.10;1.35;;;;;;;27.11;27.73;100566.19;5091427;28;19908;-71
2021/05/04 09:55:50;;;;;;;1.02;0.88;;;;;;;26.56;27.30;100568.63;5092019;28;20081;-71
2021/05/04 09:58:16;;;;;;;0.98;0.90;;;;;;;26.22;27.41;100574.38;5091265;28;20131;-70
2021/05/04 10:00:41;;;;;;;2.45;1.13;;;;;;;25.55;27.92;100561.91;5091712;28;20071;-71
2021/05/04 10:03:09;;;;;;;2.05;0.90;;;;;;;25.68;27.92;100570.47;5092017;28;20035;-71
2021/05/04 10:05:36;;;;;;;1.38;1.00;;;;;;;25.53;27.05;100557.94;5092032;28;20062;-71
2021/05/04 10:08:02;;;;;;;2.08;1.27;;;;;;;25.09;28.12;100560.56;5092921;28;20374;-72
2021/05/04 10:10:28;;;;;;;1.48;1.05;;;;;;;25.51;27.95;100560.44;5091532;28;20071;-72
2021/05/04 10:12:54;;;;;;;1.65;1.40;;;;;;;25.52;27.92;100568.53;5092681;28;20085;-72
2021/05/04 10:15:20;;;;;;;1.42;0.98;;;;;;;25.26;28.43;100558.41;5092255;28;20024;-71
2021/05/04 10:17:46;;;;;;;1.95;1.02;;;;;;;25.46;27.46;100541.88;5091920;28;20458;-72
2021/05/04 10:20:14;;;;;;;1.55;1.08;;;;;;;25.86;27.17;100529.97;5092123;28;20024;-72
2021/05/04 10:22:40;;;;;;;1.95;1.02;;;;;;;25.84;26.26;100561.00;5093806;28;20107;-72
2021/05/04 10:25:09;;;;;;;1.83;1.00;;;;;;;25.93;26.43;100566.78;5091421;28;20059;-72
2021/05/04 10:27:36;;;;;;;2.20;0.93;;;;;;;26.17;25.73;100566.38;5091708;28;20090;-72
2021/05/04 10:30:04;;;;;;;1.73;1.00;;;;;;;25.75;27.20;100566.59;5092675;28;20118;-72
2021/05/04 10:32:58;;;;;;;3.00;0.90;;;;;;;25.22;28.37;100566.25;5074985;28;20024;-72
2021/05/04 10:35:30;;;;;;;2.67;0.90;;;;;;;25.39;27.66;100558.41;5091769;28;20109;-72
2021/05/04 10:38:01;;;;;;;3.00;1.08;;;;;;;25.47;28.27;100557.72;5091838;28;20119;-71
2021/05/04 10:40:31;;;;;;;1.35;1.10;;;;;;;24.65;29.30;100562.25;5093625;28;20063;-72
2021/05/04 10:43:22;;;;;;;1.45;0.77;;;;;;;24.34;30.03;100548.44;5096807;28;20027;-71
2021/05/04 10:45:56;;;;;;;2.35;1.20;;;;;;;25.75;27.49;100546.66;5095023;28;20030;-72
2021/05/04 10:48:42;;;;;;;1.48;1.35;;;;;;;26.26;25.53;100540.78;5095718;28;20041;-72
2021/05/04 10:51:12;;;;;;;1.00;0.90;;;;;;;24.96;26.33;100528.41;5095839;28;20300;-71
2021/05/04 10:53:53;;;;;;;2.53;0.98;;;;;;;26.33;26.22;100527.06;5096194;28;20107;-72
2021/05/04 10:56:44;;;;;;;3.20;1.20;;;;;;;26.40;25.67;100528.88;5095686;28;20489;-72
2021/05/04 10:59:30;;;;;;;2.45;0.80;;;;;;;25.54;27.04;100525.34;5095600;28;20028;-72
2021/05/04 11:02:17;;;;;;;2.20;0.93;;;;;;;25.79;26.80;100524.53;5094234;28;20043;-72
2021/05/04 11:04:47;;;;;;;4.70;1.20;;;;;;;25.76;27.12;100531.16;5095551;28;20028;-71
2021/05/04 11:07:13;;;;;;;1.10;0.90;;;;;;;25.66;26.56;100520.88;5095438;28;20473;-71
2021/05/04 11:09:39;;;;;;;1.23;0.93;;;;;;;25.15;27.31;100520.94;5094937;28;20031;-72
2021/05/04 11:12:08;;;;;;;2.60;1.63;;;;;;;25.53;27.95;100524.56;5095513;28;20122;-72
2021/05/04 11:14:39;;;;;;;1.27;1.17;;;;;;;25.15;27.37;100516.03;5095851;28;20470;-72
2021/05/04 11:17:10;;;;;;;1.80;0.95;;;;;;;25.00;27.51;100504.25;5096791;28;20028;-72
2021/05/04 11:19:41;;;;;;;1.92;1.77;;;;;;;25.77;27.10;100505.03;5094683;28;20118;-72
2021/05/04 11:22:19;;;;;;;2.53;1.48;;;;;;;24.73;29.17;100509.59;5094820;28;20036;-71
2021/05/04 11:24:53;;;;;;;3.03;0.82;;;;;;;25.02;28.73;100496.06;5094469;28;20082;-71
2021/05/04 11:27:27;;;;;;;3.28;1.00;;;;;;;24.23;28.02;100482.56;5096344;28;20162;-72
2021/05/04 11:29:56;;;;;;;2.92;0.90;;;;;;;25.08;28.11;100484.94;5094815;28;20031;-71
2021/05/04 11:32:37;;;;;;;1.83;1.10;;;;;;;25.30;27.88;100485.03;5095201;28;20028;-71
2021/05/04 11:35:08;;;;;;;2.63;1.10;;;;;;;24.77;28.10;100479.78;5079327;28;20110;-71